Time;durP1;ratioP1;P1;durP2;ratioP2;P2;SDS_P1;SDS_P2;PMS_P1;PMS_P2;Temp;Humidity;BMP_temperature;BMP_pressure;BME280_temperature;BME280_humidity;BME280_pressure;Samples;Min_cycle;Max_cycle;Signal;HPM_P1;HPM_P2
2023/05/11 00:00:29;;;;;;;2.87;1.10;;;16.10;99.90;;;;;;5013060;28;20180;-74
2023/05/11 00:02:55;;;;;;;2.00;0.80;;;16.00;99.90;;;;;;5013699;28;20174;-74
2023/05/11 00:05:20;;;;;;;1.93;0.83;;;16.00;99.90;;;;;;5014167;28;20554;-74
2023/05/11 00:07:46;;;;;;;1.93;1.10;;;15.90;99.90;;;;;;5011959;28;20623;-74
2023/05/11 00:10:12;;;;;;;3.93;1.57;;;15.80;99.90;;;;;;5012970;28;20267;-74
2023/05/11 00:12:37;;;;;;;2.23;1.00;;;15.80;99.90;;;;;;5012523;28;20261;-74
2023/05/11 00:15:04;;;;;;;2.03;1.03;;;15.80;99.90;;;;;;5013354;28;20205;-74
2023/05/11 00:17:30;;;;;;;1.80;1.00;;;15.70;99.90;;;;;;5013824;28;20174;-74
2023/05/11 00:19:55;;;;;;;1.40;0.70;;;15.70;99.90;;;;;;4995751;28;20993;-74
2023/05/11 00:22:21;;;;;;;1.70;0.80;;;15.70;99.90;;;;;;4995919;28;20174;-74
2023/05/11 00:24:47;;;;;;;3.40;0.90;;;15.60;99.90;;;;;;5011977;28;20198;-74
2023/05/11 00:27:12;;;;;;;3.37;1.00;;;15.50;99.90;;;;;;5012240;28;20178;-74
2023/05/11 00:29:38;;;;;;;1.97;1.00;;;15.50;99.90;;;;;;5012291;28;20190;-74
2023/05/11 00:32:04;;;;;;;2.80;1.00;;;15.40;99.90;;;;;;5013169;28;20702;-74
2023/05/11 00:34:30;;;;;;;3.20;0.90;;;15.40;99.90;;;;;;4995980;28;20202;-74
2023/05/11 00:36:56;;;;;;;1.90;1.00;;;15.40;99.90;;;;;;4978025;28;20247;-74
2023/05/11 00:39:22;;;;;;;1.70;1.00;;;15.30;99.90;;;;;;4996142;28;20589;-74
2023/05/11 00:41:48;;;;;;;1.60;1.00;;;15.30;99.90;;;;;;4995399;28;20166;-74
2023/05/11 00:44:13;;;;;;;2.60;0.90;;;15.20;99.90;;;;;;4979404;28;20206;-74
2023/05/11 00:46:39;;;;;;;3.80;0.90;;;15.20;99.90;;;;;;4995633;28;20170;-74
2023/05/11 00:49:06;;;;;;;2.43;0.83;;;15.20;99.90;;;;;;4995253;28;20632;-74
2023/05/11 00:51:32;;;;;;;2.07;1.00;;;15.20;99.90;;;;;;4999097;28;20263;-74
2023/05/11 00:53:58;;;;;;;1.90;1.00;;;15.10;99.90;;;;;;5030938;28;20636;-74
2023/05/11 00:56:24;;;;;;;1.73;0.90;;;15.10;99.90;;;;;;5014952;28;20928;-74
2023/05/11 00:58:51;;;;;;;1.90;1.17;;;15.10;99.90;;;;;;4998523;28;20615;-74
2023/05/11 01:01:17;;;;;;;1.70;1.00;;;15.00;99.90;;;;;;5014733;28;20650;-74
2023/05/11 01:03:44;;;;;;;1.63;0.97;;;15.00;99.90;;;;;;5004628;28;21215;-74
2023/05/11 01:06:51;;;;;;;2.33;1.43;;;15.00;99.90;;;;;;5012549;28;20578;-74
2023/05/11 01:09:23;;;;;;;1.40;0.80;;;14.90;99.90;;;;;;5011678;28;21330;-73
2023/05/11 01:12:06;;;;;;;2.13;0.90;;;14.90;99.90;;;;;;4997921;28;20578;-74
2023/05/11 01:14:47;;;;;;;1.50;0.90;;;14.80;99.90;;;;;;4994056;28;20644;-74
2023/05/11 01:17:35;;;;;;;1.57;1.00;;;14.80;99.90;;;;;;4996252;28;20590;-74
2023/05/11 01:20:06;;;;;;;3.70;1.00;;;14.80;99.90;;;;;;4991974;28;20584;-74
2023/05/11 01:22:56;;;;;;;2.03;1.10;;;14.80;99.90;;;;;;4992305;28;20981;-74
2023/05/11 01:25:42;;;;;;;2.70;1.10;;;14.80;99.90;;;;;;4995392;28;20720;-73
2023/05/11 01:28:37;;;;;;;1.70;1.20;;;14.80;99.90;;;;;;4978287;28;20202;-74
2023/05/11 01:31:10;;;;;;;2.67;1.00;;;14.80;99.90;;;;;;5010991;28;20621;-74
2023/05/11 01:33:42;;;;;;;4.83;1.30;;;14.80;99.90;;;;;;5011964;28;20609;-74
2023/05/11 01:36:11;;;;;;;5.80;1.53;;;14.80;99.90;;;;;;4994727;28;20624;-74
2023/05/11 01:38:40;;;;;;;3.00;1.73;;;14.80;99.90;;;;;;5010791;28;21551;-74
2023/05/11 01:41:14;;;;;;;1.80;1.20;;;14.80;99.90;;;;;;5010962;28;20589;-73
2023/05/11 01:43:43;;;;;;;2.33;1.50;;;14.80;99.90;;;;;;4994601;28;20679;-73
2023/05/11 01:46:11;;;;;;;2.87;1.00;;;14.80;99.90;;;;;;5010276;28;20593;-73
2023/05/11 01:48:41;;;;;;;2.70;1.63;;;14.70;99.90;;;;;;4994198;28;20629;-73
2023/05/11 01:51:07;;;;;;;1.90;1.20;;;14.70;99.90;;;;;;4994076;28;20611;-73
2023/05/11 01:53:36;;;;;;;3.10;1.60;;;14.70;99.90;;;;;;5012040;28;20616;-74
2023/05/11 01:56:04;;;;;;;2.20;2.00;;;14.70;99.90;;;;;;5010034;28;20612;-74
2023/05/11 01:58:32;;;;;;;3.27;2.40;;;14.60;99.90;;;;;;4994503;28;20646;-74
2023/05/11 02:01:01;;;;;;;4.23;2.10;;;14.60;99.90;;;;;;5010744;28;20625;-74
2023/05/11 02:03:30;;;;;;;2.97;1.97;;;14.60;99.90;;;;;;4993819;28;20613;-74
2023/05/11 02:05:57;;;;;;;3.10;2.27;;;14.60;99.90;;;;;;4994090;28;20589;-74
2023/05/11 02:08:24;;;;;;;3.27;2.00;;;14.60;99.90;;;;;;4993717;28;21002;-74
2023/05/11 02:10:52;;;;;;;3.10;2.63;;;14.60;99.90;;;;;;4994316;28;20597;-74
2023/05/11 02:13:18;;;;;;;4.97;2.60;;;14.60;99.90;;;;;;5009843;28;20668;-74
2023/05/11 02:15:48;;;;;;;4.43;2.50;;;14.60;99.90;;;;;;4977432;28;20589;-74
2023/05/11 02:18:15;;;;;;;4.00;2.60;;;14.60;99.90;;;;;;4977617;28;21141;-74
2023/05/11 02:20:44;;;;;;;3.20;2.30;;;14.60;99.90;;;;;;4992841;28;20664;-74
2023/05/11 02:23:11;;;;;;;3.60;2.33;;;14.70;99.90;;;;;;4970867;28;20700;-74
2023/05/11 02:25:39;;;;;;;4.77;2.70;;;14.80;99.90;;;;;;5012851;28;20581;-74
2023/05/11 02:28:06;;;;;;;3.10;2.60;;;14.80;99.90;;;;;;5013418;28;20698;-74
2023/05/11 02:30:38;;;;;;;4.23;2.90;;;14.90;99.90;;;;;;4996650;28;20560;-73
2023/05/11 02:33:07;;;;;;;3.30;2.80;;;14.90;99.90;;;;;;5031132;28;20603;-74
2023/05/11 02:35:39;;;;;;;3.50;2.93;;;15.00;99.90;;;;;;5013004;28;20583;-73
2023/05/11 02:38:07;;;;;;;3.80;3.40;;;15.00;99.90;;;;;;5030880;28;21123;-74
2023/05/11 02:40:41;;;;;;;3.63;2.97;;;15.00;99.90;;;;;;5013399;28;20631;-74
2023/05/11 02:43:12;;;;;;;4.27;2.70;;;15.00;99.90;;;;;;5012663;28;20611;-74
2023/05/11 02:45:46;;;;;;;6.53;2.57;;;15.10;99.90;;;;;;5013383;28;20600;-74
2023/05/11 02:48:20;;;;;;;4.67;3.23;;;15.00;99.90;;;;;;5012562;28;20701;-74
2023/05/11 02:50:48;;;;;;;3.03;2.67;;;15.00;99.90;;;;;;5031106;28;20631;-74
2023/05/11 02:53:17;;;;;;;5.07;2.77;;;15.00;99.90;;;;;;5012502;28;20621;-74
2023/05/11 02:55:45;;;;;;;6.20;2.73;;;15.00;99.90;;;;;;5012915;28;20607;-74
2023/05/11 02:58:11;;;;;;;3.50;3.10;;;15.00;99.90;;;;;;5013285;28;20592;-74
2023/05/11 03:00:40;;;;;;;5.57;3.10;;;15.00;99.90;;;;;;5012083;28;21155;-74
2023/05/11 03:03:06;;;;;;;3.63;3.10;;;15.00;99.90;;;;;;5013203;28;20589;-74
2023/05/11 03:05:32;;;;;;;3.83;3.30;;;14.90;99.90;;;;;;5012474;28;20169;-74
2023/05/11 03:07:59;;;;;;;5.33;2.90;;;14.90;99.90;;;;;;5013081;28;20673;-74
2023/05/11 03:10:27;;;;;;;4.00;3.40;;;14.80;99.90;;;;;;5012549;28;20187;-73
2023/05/11 03:12:53;;;;;;;4.38;3.35;;;14.80;99.90;;;;;;5013012;28;20589;-74
2023/05/11 03:15:21;;;;;;;3.90;3.30;;;14.70;99.90;;;;;;5029510;28;20169;-74
2023/05/11 03:17:50;;;;;;;4.87;3.60;;;14.70;99.90;;;;;;5010711;28;20674;-74
2023/05/11 03:20:18;;;;;;;5.50;4.30;;;14.60;99.90;;;;;;5029488;28;20573;-74
2023/05/11 03:22:45;;;;;;;4.97;4.10;;;14.50;99.90;;;;;;4995056;28;21232;-73
2023/05/11 03:25:13;;;;;;;3.58;3.25;;;14.40;99.90;;;;;;4993301;28;20760;-74
2023/05/11 03:27:40;;;;;;;5.00;4.50;;;14.30;99.90;;;;;;4992254;28;20190;-74
2023/05/11 03:30:08;;;;;;;5.73;4.13;;;14.30;99.90;;;;;;4993453;28;20604;-74
2023/05/11 03:32:38;;;;;;;5.67;4.27;;;14.20;99.90;;;;;;4992975;28;20601;-74
2023/05/11 03:35:05;;;;;;;7.27;4.57;;;14.20;99.90;;;;;;4993027;28;20613;-73
2023/05/11 03:37:34;;;;;;;6.68;4.03;;;14.00;99.90;;;;;;5009232;28;20612;-73
2023/05/11 03:40:02;;;;;;;5.93;5.10;;;14.00;99.90;;;;;;4992840;28;20526;-74
2023/05/11 03:42:36;;;;;;;6.33;5.20;;;13.90;99.90;;;;;;4992938;28;20588;-73
2023/05/11 03:45:06;;;;;;;5.97;5.40;;;13.90;99.90;;;;;;4992768;28;20683;-74
2023/05/11 03:47:33;;;;;;;6.90;5.10;;;13.80;99.90;;;;;;5010305;28;20576;-74
2023/05/11 03:50:01;;;;;;;6.25;5.35;;;13.80;99.90;;;;;;4992510;28;20193;-73
2023/05/11 03:52:28;;;;;;;7.63;5.78;;;13.70;99.90;;;;;;5010343;28;20249;-73
2023/05/11 03:54:54;;;;;;;7.90;6.18;;;13.70;99.90;;;;;;4993197;28;20195;-73
2023/05/11 03:57:20;;;;;;;7.03;5.73;;;13.70;99.90;;;;;;4992389;28;20190;-76
2023/05/11 03:59:45;;;;;;;8.40;5.37;;;13.70;99.90;;;;;;4976938;28;20656;-76
2023/05/11 04:02:11;;;;;;;6.83;5.87;;;13.70;99.90;;;;;;4992299;28;20190;-76
2023/05/11 04:04:37;;;;;;;5.97;5.23;;;13.80;99.90;;;;;;4993306;28;20198;-76
2023/05/11 04:07:03;;;;;;;5.60;5.07;;;13.80;99.90;;;;;;5008967;28;20268;-76
2023/05/11 04:09:28;;;;;;;5.43;4.93;;;13.80;99.90;;;;;;4992703;28;20340;-76
2023/05/11 04:11:55;;;;;;;6.97;5.77;;;13.80;99.90;;;;;;5009908;28;20209;-76
2023/05/11 04:14:21;;;;;;;7.43;5.67;;;13.90;99.90;;;;;;4997953;28;21216;-76
2023/05/11 04:16:46;;;;;;;9.27;6.50;;;13.90;99.90;;;;;;5033684;28;20650;-76
2023/05/11 04:19:13;;;;;;;6.60;5.17;;;13.90;99.90;;;;;;5032041;28;21120;-76
2023/05/11 04:21:38;;;;;;;7.20;5.57;;;14.00;99.90;;;;;;5024012;28;20586;-76
2023/05/11 04:24:05;;;;;;;5.83;5.20;;;14.10;99.90;;;;;;5013576;28;20854;-76
2023/05/11 04:26:30;;;;;;;5.40;4.83;;;14.10;99.90;;;;;;5012127;28;20225;-76
2023/05/11 04:28:56;;;;;;;6.30;4.97;;;14.20;99.90;;;;;;5012660;28;21157;-76
2023/05/11 04:31:22;;;;;;;5.80;4.40;;;14.30;99.90;;;;;;5013187;28;20166;-76
2023/05/11 04:33:48;;;;;;;5.87;5.17;;;14.40;99.90;;;;;;4996024;28;20201;-76
2023/05/11 04:36:15;;;;;;;5.83;4.70;;;14.40;99.90;;;;;;4995223;28;20577;-76
2023/05/11 04:38:41;;;;;;;7.60;4.77;;;14.50;99.90;;;;;;4995885;28;21129;-76
2023/05/11 04:41:07;;;;;;;7.20;5.30;;;14.60;99.90;;;;;;4995681;28;20182;-76
2023/05/11 04:43:34;;;;;;;7.40;5.30;;;14.70;99.90;;;;;;4995363;28;21292;-76
2023/05/11 04:46:03;;;;;;;10.20;6.07;;;14.70;99.90;;;;;;4995561;28;20589;-76
2023/05/11 04:48:29;;;;;;;6.30;5.20;;;14.80;99.90;;;;;;5012844;28;20621;-76
2023/05/11 04:50:56;;;;;;;8.10;5.07;;;14.90;99.90;;;;;;4995779;28;21149;-76
2023/05/11 04:53:26;;;;;;;5.40;4.90;;;14.90;99.90;;;;;;4995169;28;20233;-76
2023/05/11 04:55:52;;;;;;;6.57;5.57;;;15.00;99.90;;;;;;4995594;28;20623;-75
2023/05/11 04:58:18;;;;;;;6.13;5.07;;;15.00;99.90;;;;;;4995397;28;20586;-76
2023/05/11 05:00:44;;;;;;;7.10;5.30;;;15.10;99.90;;;;;;4995742;28;21141;-76
2023/05/11 05:03:09;;;;;;;7.47;5.00;;;15.10;99.90;;;;;;5011847;28;20845;-75
2023/05/11 05:05:35;;;;;;;6.60;5.53;;;15.20;99.90;;;;;;5012436;28;20565;-76
2023/05/11 05:08:01;;;;;;;7.53;4.83;;;15.20;99.90;;;;;;4995424;28;20218;-76
2023/05/11 05:10:26;;;;;;;7.90;5.70;;;15.20;99.90;;;;;;5014096;28;20622;-76
2023/05/11 05:12:52;;;;;;;8.73;5.43;;;15.30;99.90;;;;;;5014936;28;20173;-76
2023/05/11 05:15:18;;;;;;;9.30;6.13;;;15.30;99.90;;;;;;5032246;28;20174;-76
2023/05/11 05:17:44;;;;;;;8.07;6.17;;;15.30;99.90;;;;;;5014645;28;20228;-76
2023/05/11 05:20:10;;;;;;;9.03;7.90;;;15.30;99.90;;;;;;5014854;28;20696;-76
2023/05/11 05:22:36;;;;;;;8.17;5.90;;;15.40;99.90;;;;;;4997352;28;21023;-76
2023/05/11 05:25:01;;;;;;;8.90;6.37;;;15.40;99.90;;;;;;5011588;28;20609;-76
2023/05/11 05:27:28;;;;;;;7.83;6.37;;;15.40;99.90;;;;;;4994392;28;20231;-76
2023/05/11 05:29:54;;;;;;;8.10;5.70;;;15.40;99.90;;;;;;4995365;28;21006;-76
2023/05/11 05:32:22;;;;;;;7.90;6.43;;;15.50;99.90;;;;;;4994573;28;20604;-76
2023/05/11 05:34:48;;;;;;;7.37;6.67;;;15.50;99.90;;;;;;4994827;28;20602;-76
2023/05/11 05:37:15;;;;;;;10.47;7.50;;;15.60;99.90;;;;;;4994947;28;20221;-76
2023/05/11 05:39:41;;;;;;;8.40;7.10;;;15.60;99.90;;;;;;4994430;28;20577;-76
2023/05/11 05:42:08;;;;;;;9.93;8.00;;;15.70;99.90;;;;;;5010990;28;20812;-76
2023/05/11 05:44:34;;;;;;;9.60;7.83;;;15.80;99.90;;;;;;4994441;28;20632;-76
2023/05/11 05:47:01;;;;;;;10.17;8.77;;;15.90;99.90;;;;;;4994522;28;20625;-76
2023/05/11 05:49:30;;;;;;;10.30;8.40;;;16.00;99.90;;;;;;4993951;28;20633;-73
2023/05/11 05:51:56;;;;;;;11.83;8.20;;;16.10;99.90;;;;;;4994759;28;20629;-76
2023/05/11 05:54:22;;;;;;;9.03;8.10;;;16.20;99.90;;;;;;4994470;28;20679;-76
2023/05/11 05:56:49;;;;;;;14.00;9.73;;;16.20;99.90;;;;;;4993899;28;20182;-77
2023/05/11 05:59:15;;;;;;;9.87;8.90;;;16.40;99.90;;;;;;4995895;28;20237;-76
2023/05/11 06:01:44;;;;;;;12.60;9.43;;;16.40;99.90;;;;;;4994102;28;20979;-75
2023/05/11 06:04:11;;;;;;;12.07;10.20;;;16.40;99.90;;;;;;4994113;28;20289;-76
2023/05/11 06:06:37;;;;;;;13.37;9.87;;;16.50;99.90;;;;;;5016410;28;20591;-76
2023/05/11 06:09:03;;;;;;;11.67;10.33;;;16.50;99.90;;;;;;4997566;28;20636;-76
2023/05/11 06:11:29;;;;;;;12.00;9.73;;;16.50;99.90;;;;;;4997658;28;20174;-76
2023/05/11 06:13:55;;;;;;;14.40;10.87;;;16.60;99.90;;;;;;5013109;28;20194;-77
2023/05/11 06:16:21;;;;;;;16.87;13.17;;;16.60;99.90;;;;;;5030968;28;20667;-76
2023/05/11 06:18:47;;;;;;;13.60;11.43;;;16.60;99.90;;;;;;5009446;28;20678;-76
2023/05/11 06:21:14;;;;;;;14.73;10.60;;;16.70;99.90;;;;;;4991294;28;20655;-76
2023/05/11 06:23:40;;;;;;;15.37;12.00;;;16.70;99.90;;;;;;4993322;28;20624;-77
2023/05/11 06:26:06;;;;;;;14.53;11.63;;;16.80;99.90;;;;;;4993877;28;20600;-77
2023/05/11 06:28:32;;;;;;;12.50;11.20;;;16.80;99.90;;;;;;4994069;28;20644;-77
2023/05/11 06:31:02;;;;;;;15.50;12.00;;;16.80;99.90;;;;;;4973539;28;20638;-77
2023/05/11 06:33:31;;;;;;;14.77;11.37;;;16.90;99.90;;;;;;4974496;28;20625;-77
2023/05/11 06:36:03;;;;;;;14.07;10.83;;;17.00;99.90;;;;;;4956930;28;20660;-77
2023/05/11 06:38:29;;;;;;;12.00;10.30;;;17.10;99.90;;;;;;4998796;28;20593;-77
2023/05/11 06:40:55;;;;;;;12.03;10.70;;;17.30;99.90;;;;;;4993511;28;20589;-77
2023/05/11 06:43:21;;;;;;;11.97;10.17;;;17.40;99.90;;;;;;4965890;28;21243;-77
2023/05/11 06:45:49;;;;;;;13.90;11.13;;;17.50;99.90;;;;;;4993889;28;20271;-77
2023/05/11 06:48:15;;;;;;;14.80;10.33;;;17.70;99.90;;;;;;4976958;28;20625;-77
2023/05/11 06:50:41;;;;;;;16.07;12.10;;;17.80;99.90;;;;;;5011568;28;20647;-77
2023/05/11 06:53:11;;;;;;;15.73;10.77;;;18.00;99.90;;;;;;5009301;28;20285;-77
2023/05/11 06:55:37;;;;;;;13.43;11.23;;;18.10;99.90;;;;;;5011065;28;20685;-77
2023/05/11 06:58:03;;;;;;;11.80;9.80;;;18.20;99.90;;;;;;5011225;28;20565;-78
2023/05/11 07:00:28;;;;;;;13.30;10.70;;;18.30;99.90;;;;;;5010828;28;20261;-77
2023/05/11 07:02:54;;;;;;;12.37;10.23;;;18.40;99.90;;;;;;5017817;28;20641;-77
2023/05/11 07:05:20;;;;;;;13.93;9.60;;;18.50;99.90;;;;;;5012497;28;20181;-77
2023/05/11 07:07:46;;;;;;;12.70;9.57;;;18.60;99.90;;;;;;5029177;28;20177;-77
2023/05/11 07:10:11;;;;;;;15.33;10.83;;;18.70;99.90;;;;;;5012686;28;20178;-76
2023/05/11 07:12:37;;;;;;;10.77;9.50;;;18.80;99.90;;;;;;5024314;28;20250;-77
2023/05/11 07:15:03;;;;;;;10.17;9.17;;;18.90;99.90;;;;;;5009678;28;20197;-77
2023/05/11 07:17:29;;;;;;;13.40;10.13;;;19.00;99.90;;;;;;4992626;28;20185;-77
2023/05/11 07:19:54;;;;;;;12.30;9.83;;;19.00;99.90;;;;;;4993868;28;20582;-76
2023/05/11 07:22:20;;;;;;;11.13;10.03;;;19.00;99.90;;;;;;5008892;28;20248;-77
2023/05/11 07:24:46;;;;;;;11.23;10.03;;;19.00;99.90;;;;;;4993574;28;20328;-77
2023/05/11 07:27:12;;;;;;;11.47;10.23;;;19.00;99.90;;;;;;4992598;28;20600;-77
2023/05/11 07:29:37;;;;;;;10.23;9.13;;;19.10;99.90;;;;;;5009639;28;20201;-76
2023/05/11 07:32:03;;;;;;;10.67;9.50;;;19.20;99.90;;;;;;5010919;28;20186;-77
2023/05/11 07:34:29;;;;;;;11.10;8.83;;;19.30;99.90;;;;;;4992654;28;20202;-77
2023/05/11 07:36:55;;;;;;;12.40;8.33;;;19.50;99.90;;;;;;5010891;28;20926;-77
2023/05/11 07:39:21;;;;;;;9.93;8.90;;;19.70;99.90;;;;;;5009012;28;20182;-74
2023/05/11 07:41:47;;;;;;;10.63;8.40;;;19.80;99.90;;;;;;4993309;28;20565;-74
2023/05/11 07:44:12;;;;;;;12.43;8.00;;;19.90;99.90;;;;;;5009449;28;20241;-76
2023/05/11 07:46:38;;;;;;;9.07;7.67;;;20.00;99.90;;;;;;5011892;28;20185;-77
2023/05/11 07:49:04;;;;;;;11.80;8.80;;;20.00;99.90;;;;;;5014646;28;20733;-76
2023/05/11 07:51:30;;;;;;;13.10;10.37;;;20.00;99.90;;;;;;4995947;28;20174;-76
2023/05/11 07:53:56;;;;;;;11.13;9.90;;;20.00;99.90;;;;;;5013079;28;20651;-76
2023/05/11 07:56:22;;;;;;;11.10;9.80;;;20.00;99.90;;;;;;5014616;28;20561;-76
2023/05/11 07:58:47;;;;;;;13.27;10.13;;;20.00;99.90;;;;;;4997877;28;20316;-76
2023/05/11 08:01:13;;;;;;;9.20;8.30;;;20.10;99.90;;;;;;5031776;28;20181;-76
2023/05/11 08:03:39;;;;;;;11.03;8.77;;;20.20;99.90;;;;;;5027409;28;20255;-76
2023/05/11 08:06:05;;;;;;;9.40;8.47;;;20.50;99.90;;;;;;5032620;28;20177;-76
2023/05/11 08:08:31;;;;;;;13.40;8.37;;;20.70;99.90;;;;;;5032013;28;20551;-75
2023/05/11 08:10:56;;;;;;;9.70;8.70;;;20.90;99.90;;;;;;5032522;28;20561;-75
2023/05/11 08:13:22;;;;;;;10.60;9.00;;;21.10;99.90;;;;;;5032195;28;20198;-75
2023/05/11 08:15:48;;;;;;;8.97;8.17;;;21.30;99.90;;;;;;5032021;28;20178;-75
2023/05/11 08:18:14;;;;;;;8.40;7.60;;;21.50;99.90;;;;;;5021481;28;20597;-75
2023/05/11 08:20:41;;;;;;;9.53;8.43;;;21.70;99.90;;;;;;5012065;28;20585;-76
2023/05/11 08:23:07;;;;;;;9.27;8.37;;;22.00;99.90;;;;;;5014052;28;20183;-75
2023/05/11 08:25:33;;;;;;;9.47;8.20;;;22.20;99.90;;;;;;4979368;28;20573;-75
2023/05/11 08:27:59;;;;;;;8.90;8.00;;;22.30;99.90;;;;;;5012686;28;20655;-75
2023/05/11 08:30:25;;;;;;;8.40;7.10;;;22.30;99.90;;;;;;5012573;28;20593;-76
2023/05/11 08:32:51;;;;;;;8.13;7.33;;;22.40;99.90;;;;;;5013261;28;20588;-74
2023/05/11 08:35:17;;;;;;;7.00;6.40;;;22.40;99.90;;;;;;4997016;28;20690;-73
2023/05/11 08:37:42;;;;;;;8.23;7.43;;;22.40;99.90;;;;;;5013030;28;20193;-73
2023/05/11 08:40:12;;;;;;;7.47;6.77;;;22.30;99.90;;;;;;4996126;28;20577;-74
2023/05/11 08:42:40;;;;;;;6.30;5.70;;;22.40;99.90;;;;;;4995136;28;20186;-73
2023/05/11 08:45:07;;;;;;;7.30;5.97;;;22.40;99.90;;;;;;4996086;28;20617;-73
2023/05/11 08:47:33;;;;;;;6.60;6.00;;;22.50;99.90;;;;;;4995643;28;20593;-73
2023/05/11 08:49:59;;;;;;;6.80;5.97;;;22.60;99.90;;;;;;5011735;28;20610;-74
2023/05/11 08:52:26;;;;;;;7.53;5.90;;;22.60;99.90;;;;;;5012365;28;21110;-73
2023/05/11 08:54:52;;;;;;;6.50;5.53;;;22.70;99.90;;;;;;5012849;28;20237;-74
2023/05/11 08:57:19;;;;;;;6.37;5.87;;;22.80;99.90;;;;;;5013214;28;20589;-73
2023/05/11 08:59:45;;;;;;;6.10;5.50;;;22.80;99.90;;;;;;5031261;28;20623;-74
2023/05/11 09:02:17;;;;;;;6.30;5.70;;;22.80;99.90;;;;;;5032723;28;20610;-73
2023/05/11 09:04:44;;;;;;;5.40;4.90;;;22.80;99.90;;;;;;5031555;28;20693;-74
2023/05/11 09:07:10;;;;;;;6.47;5.70;;;22.70;99.90;;;;;;5013783;28;20576;-74
2023/05/11 09:09:36;;;;;;;5.83;5.30;;;22.60;99.90;;;;;;5031628;28;20632;-74
2023/05/11 09:12:02;;;;;;;5.50;5.00;;;22.50;99.90;;;;;;5033062;28;20561;-74
2023/05/11 09:14:29;;;;;;;6.47;5.87;;;22.40;99.90;;;;;;5020338;28;20860;-74
2023/05/11 09:16:54;;;;;;;6.57;5.80;;;22.30;99.90;;;;;;4995149;28;20620;-73
2023/05/11 09:19:20;;;;;;;6.23;5.73;;;22.20;99.90;;;;;;4994977;28;20625;-73
2023/05/11 09:21:46;;;;;;;5.23;4.50;;;22.10;99.90;;;;;;5012690;28;20178;-73
2023/05/11 09:24:12;;;;;;;6.50;5.87;;;22.00;99.90;;;;;;5011030;28;20613;-73
2023/05/11 09:26:38;;;;;;;5.10;4.60;;;21.90;99.90;;;;;;5012435;28;20576;-73
2023/05/11 09:29:04;;;;;;;5.97;5.37;;;21.80;99.90;;;;;;4994396;28;20213;-73
2023/05/11 09:31:35;;;;;;;5.93;5.20;;;21.70;99.90;;;;;;5012436;28;20993;-74
2023/05/11 09:34:17;;;;;;;4.83;4.43;;;21.70;99.90;;;;;;5011127;28;20694;-74
2023/05/11 09:37:00;;;;;;;6.00;5.47;;;21.60;99.90;;;;;;5011995;28;20565;-73
2023/05/11 09:39:34;;;;;;;5.57;5.03;;;21.60;99.90;;;;;;4994914;28;20586;-73
2023/05/11 09:42:20;;;;;;;6.10;5.60;;;21.60;99.90;;;;;;5010210;28;20593;-73
2023/05/11 09:44:47;;;;;;;5.10;4.60;;;21.50;99.90;;;;;;4978803;28;20629;-73
2023/05/11 09:47:17;;;;;;;5.30;4.27;;;21.50;99.90;;;;;;5012747;28;20573;-73
2023/05/11 09:49:44;;;;;;;7.03;6.17;;;21.40;99.90;;;;;;5012066;28;20687;-74
2023/05/11 09:52:14;;;;;;;5.73;5.20;;;21.40;99.90;;;;;;4986375;28;20639;-74
2023/05/11 09:54:45;;;;;;;8.60;4.77;;;21.40;99.90;;;;;;5031916;28;20612;-74
2023/05/11 09:57:30;;;;;;;5.40;4.90;;;21.30;99.90;;;;;;5030541;28;20584;-73
2023/05/11 09:59:59;;;;;;;6.00;5.03;;;21.30;99.90;;;;;;5030625;28;20592;-73
2023/05/11 10:02:32;;;;;;;12.40;6.03;;;21.30;99.90;;;;;;5030269;28;20580;-73
2023/05/11 10:05:00;;;;;;;8.67;5.17;;;21.30;99.90;;;;;;5029884;28;20616;-72
2023/05/11 10:07:29;;;;;;;6.83;4.47;;;21.30;99.90;;;;;;5007877;28;20585;-73
2023/05/11 10:10:06;;;;;;;6.07;4.50;;;21.40;99.90;;;;;;5009954;28;21274;-72
2023/05/11 10:12:33;;;;;;;6.57;4.40;;;21.40;99.90;;;;;;5025638;23;20620;-80
2023/05/11 10:15:05;;;;;;;6.77;5.83;;;21.50;99.90;;;;;;4967010;28;20603;-81
2023/05/11 10:17:32;;;;;;;6.33;5.73;;;21.60;99.90;;;;;;4967935;28;20582;-81
2023/05/11 10:19:58;;;;;;;8.37;5.30;;;21.60;99.90;;;;;;4985187;28;20567;-80
2023/05/11 10:22:26;;;;;;;6.93;6.00;;;21.60;99.90;;;;;;4980605;28;20594;-81
2023/05/11 10:24:53;;;;;;;7.83;5.83;;;21.70;99.90;;;;;;4977331;28;21210;-80
2023/05/11 10:27:19;;;;;;;5.50;5.00;;;21.70;99.90;;;;;;5002721;28;21012;-80
2023/05/11 10:29:46;;;;;;;6.43;4.37;;;21.80;99.90;;;;;;4992748;28;20683;-80
2023/05/11 10:32:15;;;;;;;6.03;4.50;;;21.80;99.90;;;;;;5002246;28;20581;-80
2023/05/11 10:34:42;;;;;;;4.47;3.93;;;21.90;99.90;;;;;;5012060;28;20586;-80
2023/05/11 10:37:08;;;;;;;8.57;4.60;;;21.90;99.90;;;;;;4993546;28;21163;-81
2023/05/11 10:39:38;;;;;;;6.70;4.30;;;22.00;99.90;;;;;;5010549;28;20582;-79
2023/05/11 10:42:36;;;;;;;5.17;4.67;;;22.00;99.90;;;;;;4977628;28;20672;-79
2023/05/11 10:45:36;;;;;;;6.77;4.87;;;22.10;99.90;;;;;;4994430;28;20588;-80
2023/05/11 10:48:31;;;;;;;4.33;3.43;;;22.10;99.90;;;;;;5008711;28;20996;-80
2023/05/11 10:51:06;;;;;;;5.77;4.53;;;22.20;99.90;;;;;;4990436;28;20620;-74
2023/05/11 10:54:04;;;;;;;4.30;3.73;;;22.30;99.90;;;;;;5009814;28;21231;-75
2023/05/11 10:56:48;;;;;;;8.83;5.93;;;22.40;99.90;;;;;;4957673;28;20996;-73
2023/05/11 10:59:36;;;;;;;8.07;4.33;;;22.40;99.90;;;;;;4994685;28;20926;-76
2023/05/11 11:02:02;;;;;;;5.70;3.63;;;22.50;99.90;;;;;;4994656;28;20623;-74
2023/05/11 11:04:49;;;;;;;5.67;5.07;;;22.70;99.90;;;;;;5012768;28;20729;-75
2023/05/11 11:07:18;;;;;;;7.07;4.70;;;22.60;99.90;;;;;;4998349;28;20631;-75
2023/05/11 11:09:55;;;;;;;11.80;7.63;;;22.70;99.90;;;;;;4991817;28;20617;-76
2023/05/11 11:12:26;;;;;;;9.30;7.23;;;22.80;99.90;;;;;;4990494;28;21257;-76
2023/05/11 11:14:56;;;;;;;10.30;7.60;;;22.90;99.90;;;;;;4991367;28;20681;-75
2023/05/11 11:17:25;;;;;;;7.20;6.50;;;22.90;99.90;;;;;;4989943;28;20637;-76
2023/05/11 11:19:51;;;;;;;8.13;7.30;;;22.90;99.90;;;;;;4974469;28;20574;-76
2023/05/11 11:22:37;;;;;;;11.10;8.20;;;22.90;99.90;;;;;;4992804;28;20593;-75
2023/05/11 11:25:04;;;;;;;10.47;8.07;;;22.80;99.90;;;;;;4994805;28;20578;-76
2023/05/11 11:27:39;;;;;;;10.17;7.70;;;22.60;99.90;;;;;;4994351;28;20737;-76
2023/05/11 11:30:18;;;;;;;15.80;9.53;;;22.40;99.90;;;;;;4964263;28;20582;-75
2023/05/11 11:32:52;;;;;;;12.93;7.80;;;22.30;99.90;;;;;;4997920;28;20602;-75
2023/05/11 11:35:40;;;;;;;9.37;8.37;;;22.20;99.90;;;;;;4978872;28;21160;-75
2023/05/11 11:38:08;;;;;;;8.70;7.50;;;22.10;99.90;;;;;;4997534;28;20674;-75
2023/05/11 11:40:38;;;;;;;11.23;8.97;;;22.20;99.90;;;;;;4999020;28;20941;-75
2023/05/11 11:43:44;;;;;;;11.60;8.97;;;22.20;99.90;;;;;;4999660;28;20664;-75
2023/05/11 11:46:28;;;;;;;12.17;8.90;;;22.40;99.90;;;;;;4995359;28;20629;-75
2023/05/11 11:49:08;;;;;;;10.27;7.60;;;22.60;99.90;;;;;;4996141;28;20632;-75
2023/05/11 11:51:36;;;;;;;10.67;7.80;;;22.90;99.90;;;;;;4978773;28;20650;-76
2023/05/11 11:54:02;;;;;;;10.50;8.10;;;23.20;99.90;;;;;;4996238;28;20994;-75
2023/05/11 11:56:27;;;;;;;8.83;7.93;;;23.40;99.90;;;;;;4979243;28;20623;-76
2023/05/11 11:59:01;;;;;;;13.30;8.97;;;23.40;99.90;;;;;;4981390;28;21029;-75
2023/05/11 12:01:36;;;;;;;10.20;7.10;;;23.50;99.90;;;;;;4999427;28;20182;-76
2023/05/11 12:04:29;;;;;;;10.20;7.23;;;23.40;99.90;;;;;;4998449;28;20649;-76
2023/05/11 12:06:57;;;;;;;11.97;7.40;;;23.40;99.90;;;;;;4997818;28;20582;-76
2023/05/11 12:09:26;;;;;;;9.63;7.80;;;23.20;99.90;;;;;;4979611;28;20645;-75
2023/05/11 12:11:51;;;;;;;9.10;8.20;;;23.10;99.90;;;;;;4998027;28;20586;-75
2023/05/11 12:14:19;;;;;;;11.40;8.30;;;22.90;99.90;;;;;;4998199;28;20629;-76
2023/05/11 12:17:00;;;;;;;9.77;8.10;;;22.70;99.90;;;;;;4982720;28;20995;-76
2023/05/11 12:19:27;;;;;;;10.50;7.80;;;22.50;99.90;;;;;;4984738;28;20590;-76
2023/05/11 12:21:52;;;;;;;9.87;8.87;;;22.50;99.90;;;;;;4995104;28;20585;-76
2023/05/11 12:24:18;;;;;;;10.57;8.53;;;22.50;99.90;;;;;;4997065;28;20625;-76
2023/05/11 12:26:44;;;;;;;11.97;8.87;;;22.50;99.90;;;;;;5001022;28;20718;-76
2023/05/11 12:29:12;;;;;;;12.13;10.10;;;22.50;99.90;;;;;;4994843;28;20214;-76
2023/05/11 12:31:43;;;;;;;10.50;7.90;;;22.60;99.90;;;;;;4977232;28;20197;-76
2023/05/11 12:34:14;;;;;;;11.80;9.47;;;22.70;99.90;;;;;;4978749;28;20606;-76
2023/05/11 12:36:41;;;;;;;11.20;8.40;;;22.80;99.90;;;;;;4997742;28;20577;-76
2023/05/11 12:39:06;;;;;;;10.27;7.50;;;22.90;99.90;;;;;;4996196;28;20582;-76
2023/05/11 12:41:32;;;;;;;16.30;8.97;;;23.00;99.90;;;;;;4985310;28;20613;-75
2023/05/11 12:43:58;;;;;;;9.00;7.00;;;23.10;99.90;;;;;;4998659;28;20237;-75
2023/05/11 12:46:24;;;;;;;12.63;7.37;;;23.20;99.90;;;;;;4993579;28;20273;-75
2023/05/11 12:48:50;;;;;;;12.23;8.07;;;23.20;99.90;;;;;;4992892;28;20633;-75
2023/05/11 12:51:58;;;;;;;7.70;6.13;;;23.20;99.90;;;;;;4977407;28;20183;-75